createdAt,value
2018-04-17T00:01:14.007Z,9.30
2018-04-17T00:03:42.367Z,9.29
2018-04-17T00:06:10.984Z,9.23
2018-04-17T00:08:39.350Z,9.15
2018-04-17T00:11:07.980Z,9.11
2018-04-17T00:13:36.417Z,9.10
2018-04-17T00:16:04.886Z,9.08
2018-04-17T00:18:33.476Z,9.05
2018-04-17T00:21:01.833Z,9.09
2018-04-17T00:23:30.314Z,9.11
2018-04-17T00:25:58.781Z,9.02
2018-04-17T00:28:27.417Z,8.96
2018-04-17T00:30:56.195Z,8.92
2018-04-17T00:33:24.819Z,8.89
2018-04-17T00:35:53.204Z,8.84
2018-04-17T00:38:21.600Z,8.83
2018-04-17T00:40:50.193Z,8.83
2018-04-17T00:43:18.629Z,8.79
2018-04-17T00:45:47.031Z,8.76
2018-04-17T00:48:15.408Z,8.69
2018-04-17T00:50:43.773Z,8.66
2018-04-17T00:53:24.027Z,8.55
2018-04-17T00:55:52.387Z,8.48
2018-04-17T00:58:20.752Z,8.45
2018-04-17T01:00:49.412Z,8.38
2018-04-17T01:03:17.837Z,8.33
2018-04-17T01:05:46.219Z,8.27
2018-04-17T01:08:14.701Z,8.25
2018-04-17T01:10:43.159Z,8.26
2018-04-17T01:13:11.916Z,8.21
2018-04-17T01:15:40.507Z,8.22
2018-04-17T01:18:08.871Z,8.21
2018-04-17T01:20:37.282Z,8.22
2018-04-17T01:23:05.693Z,8.17
2018-04-17T01:25:34.169Z,8.13
2018-04-17T01:28:02.744Z,8.12
2018-04-17T01:30:31.408Z,8.19
2018-04-17T01:32:59.763Z,8.22
2018-04-17T01:35:28.229Z,8.21
2018-04-17T01:37:56.613Z,8.16
2018-04-17T01:40:24.969Z,8.12
2018-04-17T01:42:53.327Z,8.03
2018-04-17T01:45:22.300Z,8.03
2018-04-17T01:47:50.806Z,8.04
2018-04-17T01:52:53.887Z,8.01
2018-04-17T01:55:22.352Z,8.00
2018-04-17T01:57:50.755Z,8.05
2018-04-17T02:00:19.201Z,8.05
2018-04-17T02:02:47.713Z,8.07
2018-04-17T02:05:16.073Z,8.05
2018-04-17T02:07:44.439Z,8.03
2018-04-17T02:10:12.960Z,8.04
2018-04-17T02:12:41.317Z,8.01
2018-04-17T02:15:09.676Z,7.99
2018-04-17T02:17:38.032Z,8.01
2018-04-17T02:20:06.525Z,8.06
2018-04-17T02:22:34.951Z,8.10
2018-04-17T02:25:03.311Z,8.10
2018-04-17T02:27:31.693Z,8.09
2018-04-17T02:30:00.048Z,8.08
2018-04-17T02:32:28.588Z,8.11
2018-04-17T02:34:56.998Z,8.11
2018-04-17T02:37:25.363Z,8.11
2018-04-17T02:39:53.724Z,8.11
2018-04-17T02:42:22.335Z,8.13
2018-04-17T02:44:51.679Z,8.14
2018-04-17T02:47:20.071Z,8.18
2018-04-17T02:49:48.428Z,8.20
2018-04-17T02:52:16.985Z,8.17
2018-04-17T02:54:45.521Z,8.16
2018-04-17T02:57:14.150Z,8.15
2018-04-17T02:59:42.923Z,8.15
2018-04-17T03:02:11.286Z,8.17
2018-04-17T03:04:39.704Z,8.17
2018-04-17T03:07:08.412Z,8.19
2018-04-17T03:09:37.039Z,8.19
2018-04-17T03:12:05.452Z,8.21
2018-04-17T03:14:33.808Z,8.24
2018-04-17T03:17:02.339Z,8.22
2018-04-17T03:19:30.958Z,8.19
2018-04-17T03:21:59.389Z,8.17
2018-04-17T03:24:27.966Z,8.17
2018-04-17T03:26:56.604Z,8.20
2018-04-17T03:29:25.129Z,8.21
2018-04-17T03:31:53.518Z,8.22
2018-04-17T03:34:21.877Z,8.22
2018-04-17T03:36:50.239Z,8.20
2018-04-17T03:39:18.662Z,8.21
2018-04-17T03:41:47.209Z,8.22
2018-04-17T03:44:15.714Z,8.21
2018-04-17T03:46:44.378Z,8.22
2018-04-17T03:49:12.840Z,8.22
2018-04-17T03:51:41.582Z,8.21
2018-04-17T03:54:09.945Z,8.27
2018-04-17T03:56:38.431Z,8.29
2018-04-17T03:59:07.063Z,8.28
2018-04-17T04:01:35.623Z,8.29
2018-04-17T04:04:03.997Z,8.30
2018-04-17T04:06:32.847Z,8.31
2018-04-17T04:09:01.283Z,8.35
2018-04-17T04:11:29.637Z,8.35
2018-04-17T04:13:58.112Z,8.36
2018-04-17T04:16:38.522Z,8.41
2018-04-17T04:19:18.669Z,8.43
2018-04-17T04:21:59.377Z,8.43
2018-04-17T04:24:39.800Z,8.44
2018-04-17T04:27:08.204Z,8.39
2018-04-17T04:29:36.807Z,8.38
2018-04-17T04:32:05.333Z,8.38
2018-04-17T04:34:33.820Z,8.37
2018-04-17T04:37:02.437Z,8.38
2018-04-17T04:39:31.203Z,8.38
2018-04-17T04:41:59.597Z,8.38
2018-04-17T04:44:27.963Z,8.42
2018-04-17T04:46:56.335Z,8.44
2018-04-17T04:49:24.769Z,8.48
2018-04-17T04:51:53.120Z,8.55
2018-04-17T04:54:21.566Z,8.60
2018-04-17T04:56:50.090Z,8.66
2018-04-17T04:59:18.519Z,8.70
2018-04-17T05:01:46.884Z,8.72
2018-04-17T05:04:15.265Z,8.72
2018-04-17T05:06:43.872Z,8.78
2018-04-17T05:09:12.626Z,8.86
2018-04-17T05:11:40.989Z,8.95
2018-04-17T05:14:09.432Z,9.02
2018-04-17T05:16:37.899Z,9.08
2018-04-17T05:19:06.386Z,9.09
2018-04-17T05:21:34.777Z,9.12
2018-04-17T05:24:03.273Z,9.13
2018-04-17T05:26:31.628Z,9.12
2018-04-17T05:29:00.047Z,9.12
2018-04-17T05:31:29.071Z,9.17
2018-04-17T05:33:57.438Z,9.20
2018-04-17T05:36:25.803Z,9.27
2018-04-17T05:38:54.604Z,9.31
2018-04-17T05:41:23.200Z,9.38
2018-04-17T05:43:51.753Z,9.41
2018-04-17T05:46:20.247Z,9.42
2018-04-17T05:48:48.610Z,9.42
2018-04-17T05:51:16.999Z,9.44
2018-04-17T05:53:45.366Z,9.43
2018-04-17T05:56:14.234Z,9.37
2018-04-17T05:58:42.636Z,9.32
2018-04-17T06:01:11.103Z,9.27
2018-04-17T06:03:39.573Z,9.21
2018-04-17T06:06:07.931Z,9.19
2018-04-17T06:08:36.548Z,9.17
2018-04-17T06:11:04.907Z,9.14
2018-04-17T06:13:33.730Z,9.12
2018-04-17T06:16:02.088Z,9.14
2018-04-17T06:18:30.774Z,9.10
2018-04-17T06:20:59.139Z,9.13
2018-04-17T06:23:27.872Z,9.17
2018-04-17T06:25:56.379Z,9.23
2018-04-17T06:28:24.765Z,9.29
2018-04-17T06:30:53.272Z,9.33
2018-04-17T06:33:21.761Z,9.35
2018-04-17T06:35:50.165Z,9.40
2018-04-17T06:38:19.284Z,9.48
2018-04-17T06:40:47.739Z,9.46
2018-04-17T06:43:16.482Z,9.42
2018-04-17T06:45:44.974Z,9.43
2018-04-17T06:48:13.341Z,9.43
2018-04-17T06:50:42.990Z,9.45
2018-04-17T06:53:11.466Z,9.43
2018-04-17T06:55:40.105Z,9.45
2018-04-17T06:58:08.664Z,9.48
2018-04-17T07:00:37.248Z,9.53
2018-04-17T07:03:05.737Z,9.59
2018-04-17T07:05:34.360Z,9.70
2018-04-17T07:08:03.299Z,9.83
2018-04-17T07:10:31.864Z,9.97
2018-04-17T07:13:00.558Z,10.11
2018-04-17T07:15:29.040Z,10.20
2018-04-17T07:17:57.565Z,10.24
2018-04-17T07:20:26.346Z,10.32
2018-04-17T07:22:54.760Z,10.42
2018-04-17T07:25:23.121Z,10.56
2018-04-17T07:27:51.499Z,10.65
2018-04-17T07:30:19.872Z,10.80
2018-04-17T07:32:49.030Z,10.89
2018-04-17T07:35:17.481Z,10.93
2018-04-17T07:37:46.507Z,10.91
2018-04-17T07:40:16.215Z,10.89
2018-04-17T07:42:44.606Z,10.94
2018-04-17T07:45:13.329Z,11.05
2018-04-17T07:50:42.817Z,11.10
2018-04-17T07:53:11.717Z,11.07
2018-04-17T07:55:40.380Z,11.08
2018-04-17T07:58:08.976Z,11.11
2018-04-17T08:00:37.332Z,11.13
2018-04-17T08:03:05.843Z,11.13
2018-04-17T08:05:34.321Z,11.18
2018-04-17T08:08:03.701Z,11.23
2018-04-17T08:10:32.521Z,11.24
2018-04-17T08:13:00.980Z,11.27
2018-04-17T08:15:29.496Z,11.39
2018-04-17T08:17:58.204Z,11.59
2018-04-17T08:20:27.035Z,11.63
2018-04-17T08:22:56.353Z,11.64
2018-04-17T08:25:24.978Z,11.62
2018-04-17T08:27:53.337Z,11.65
2018-04-17T08:30:22.055Z,11.74
2018-04-17T08:32:51.007Z,11.83
2018-04-17T08:35:20.335Z,11.94
2018-04-17T08:37:48.875Z,12.03
2018-04-17T08:40:17.899Z,12.08
2018-04-17T08:42:46.588Z,12.15
2018-04-17T08:45:15.087Z,12.21
2018-04-17T08:47:43.533Z,12.32
2018-04-17T08:50:11.932Z,12.47
2018-04-17T08:52:40.283Z,12.63
2018-04-17T08:55:08.782Z,12.82
2018-04-17T08:57:37.268Z,12.88
2018-04-17T09:00:05.692Z,12.81
2018-04-17T09:02:34.323Z,12.77
2018-04-17T09:05:02.941Z,12.80
2018-04-17T09:07:31.525Z,12.82
2018-04-17T09:10:00.014Z,12.80
2018-04-17T09:12:28.370Z,12.86
2018-04-17T09:14:56.731Z,12.90
2018-04-17T09:17:25.111Z,12.88
2018-04-17T09:19:53.698Z,12.94
2018-04-17T09:22:22.491Z,13.02
2018-04-17T09:24:51.416Z,13.10
2018-04-17T09:27:19.920Z,13.17
2018-04-17T09:29:48.422Z,13.26
2018-04-17T09:32:16.813Z,13.36
2018-04-17T09:34:45.629Z,13.47
2018-04-17T09:37:14.001Z,13.58
2018-04-17T09:39:42.887Z,13.73
2018-04-17T09:42:11.335Z,13.78
2018-04-17T09:44:39.948Z,13.80
2018-04-17T09:47:09.355Z,13.88
2018-04-17T09:49:37.724Z,14.02
2018-04-17T09:52:06.169Z,14.18
2018-04-17T09:54:34.632Z,14.33
2018-04-17T09:57:04.179Z,14.50
2018-04-17T09:59:32.741Z,14.72
2018-04-17T10:02:01.399Z,14.92
2018-04-17T10:04:29.980Z,15.00
2018-04-17T10:06:58.514Z,15.08
2018-04-17T10:09:26.929Z,15.21
2018-04-17T10:11:55.322Z,15.25
2018-04-17T10:14:23.763Z,15.26
2018-04-17T10:16:52.623Z,15.28
2018-04-17T10:19:21.216Z,15.35
2018-04-17T10:21:49.891Z,15.37
2018-04-17T10:24:18.251Z,15.34
2018-04-17T10:26:47.207Z,15.42
2018-04-17T10:29:16.954Z,15.58
2018-04-17T10:31:45.614Z,15.66
2018-04-17T10:34:14.164Z,15.70
2018-04-17T10:36:42.523Z,15.77
2018-04-17T10:39:10.951Z,15.76
2018-04-17T10:41:39.305Z,15.68
2018-04-17T10:44:07.783Z,15.66
2018-04-17T11:53:14.319Z,18.33
2018-04-17T11:55:42.676Z,18.51
2018-04-17T11:58:11.141Z,18.33
2018-04-17T12:03:43.781Z,17.87
2018-04-17T12:06:12.516Z,18.01
2018-04-17T12:08:41.122Z,18.16
2018-04-17T12:11:10.371Z,18.09
2018-04-17T12:13:38.836Z,18.06
2018-04-17T12:16:07.545Z,18.09
2018-04-17T12:18:36.092Z,18.33
2018-04-17T12:21:05.891Z,18.54
2018-04-17T12:23:34.327Z,18.76
2018-04-17T12:26:02.839Z,18.99
2018-04-17T12:28:31.277Z,19.06
2018-04-17T12:31:00.059Z,19.41
2018-04-17T12:33:28.605Z,19.47
2018-04-17T12:35:57.867Z,19.60
2018-04-17T12:38:26.242Z,19.52
2018-04-17T12:40:55.079Z,19.37
2018-04-17T12:43:28.188Z,19.74
2018-04-17T12:45:57.823Z,19.56
2018-04-17T12:48:30.793Z,19.35
2018-04-17T12:50:59.544Z,19.38
2018-04-17T12:53:29.019Z,19.34
2018-04-17T12:56:01.947Z,19.21
2018-04-17T12:58:33.246Z,19.87
2018-04-17T13:01:02.511Z,19.98
2018-04-17T13:03:31.292Z,20.10
2018-04-17T13:06:00.065Z,19.83
2018-04-17T13:08:30.461Z,19.68
2018-04-17T13:10:59.850Z,19.96
2018-04-17T13:13:33.431Z,19.84
2018-04-17T13:16:05.079Z,19.71
2018-04-17T13:18:38.469Z,19.55
2018-04-17T13:21:08.823Z,19.36
2018-04-17T13:23:37.505Z,19.91
2018-04-17T13:26:06.233Z,20.14
2018-04-17T13:28:34.761Z,20.47
2018-04-17T13:31:03.599Z,20.30
2018-04-17T13:33:32.085Z,20.12
2018-04-17T13:36:01.539Z,20.33
2018-04-17T13:38:30.786Z,20.67
2018-04-17T13:40:59.617Z,20.97
2018-04-17T13:43:28.669Z,21.26
2018-04-17T13:45:57.191Z,21.33
2018-04-17T13:48:26.910Z,21.58
2018-04-17T13:50:55.561Z,21.87
2018-04-17T13:53:24.565Z,22.13
2018-04-17T13:55:53.724Z,22.29
2018-04-17T13:58:22.936Z,21.97
2018-04-17T14:00:51.704Z,21.83
2018-04-17T14:03:20.113Z,21.03
2018-04-17T14:05:48.848Z,20.33
2018-04-17T14:08:17.883Z,20.39
2018-04-17T14:10:47.265Z,20.72
2018-04-17T14:13:16.819Z,20.64
2018-04-17T14:15:46.070Z,20.04
2018-04-17T14:18:15.322Z,19.53
2018-04-17T14:20:44.349Z,19.03
2018-04-17T14:23:12.742Z,18.55
2018-04-17T14:25:42.237Z,18.25
2018-04-17T14:28:10.814Z,17.93
2018-04-17T14:30:39.806Z,17.76
2018-04-17T14:33:32.082Z,17.55
2018-04-17T14:36:03.016Z,17.39
2018-04-17T14:38:31.835Z,17.23
2018-04-17T14:41:00.550Z,17.05
2018-04-17T14:43:32.223Z,17.12
2018-04-17T14:46:03.983Z,17.18
2018-04-17T14:51:19.347Z,17.15
2018-04-17T14:53:48.616Z,17.28
2018-04-17T14:56:17.406Z,17.88
2018-04-17T14:58:47.153Z,17.87
2018-04-17T15:01:15.577Z,18.21
2018-04-17T15:03:44.546Z,18.36
2018-04-17T15:06:13.319Z,17.88
2018-04-17T15:08:41.955Z,17.53
2018-04-17T15:11:10.606Z,17.63
2018-04-17T15:13:39.645Z,17.37
2018-04-17T15:16:08.609Z,16.95
2018-04-17T15:18:37.211Z,16.66
2018-04-17T15:21:06.178Z,16.42
2018-04-17T15:23:34.992Z,16.25
2018-04-17T15:26:03.525Z,16.08
2018-04-17T15:28:32.634Z,15.85
2018-04-17T15:31:01.000Z,15.67
2018-04-17T15:33:29.395Z,15.67
2018-04-17T15:35:59.167Z,15.65
2018-04-17T15:38:27.940Z,15.66
2018-04-17T15:40:56.376Z,15.57
2018-04-17T15:43:24.751Z,15.41
2018-04-17T15:45:53.508Z,15.31
2018-04-17T15:48:21.885Z,15.27
2018-04-17T15:50:50.693Z,15.26
2018-04-17T15:53:19.044Z,15.29
2018-04-17T15:55:47.508Z,15.46
2018-04-17T15:58:15.903Z,15.66
2018-04-17T16:00:45.391Z,15.76
2018-04-17T16:03:14.436Z,15.80
2018-04-17T16:05:42.808Z,16.06
2018-04-17T16:08:11.277Z,16.29
2018-04-17T16:10:40.097Z,16.28
2018-04-17T16:13:08.856Z,16.57
2018-04-17T16:15:37.599Z,16.88
2018-04-17T16:18:07.047Z,16.76
2018-04-17T16:20:35.796Z,16.50
2018-04-17T16:23:04.174Z,16.39
2018-04-17T16:25:33.516Z,16.20
2018-04-17T16:28:02.936Z,16.05
2018-04-17T16:30:32.095Z,15.95
2018-04-17T16:33:01.402Z,15.88
2018-04-17T16:35:30.489Z,15.78
2018-04-17T16:37:59.269Z,15.70
2018-04-17T16:40:28.059Z,15.51
2018-04-17T16:42:58.355Z,15.32
2018-04-17T16:45:26.845Z,15.21
2018-04-17T16:47:55.848Z,15.12
2018-04-17T16:50:24.329Z,15.04
2018-04-17T16:52:52.721Z,14.93
2018-04-17T16:55:21.751Z,14.77
2018-04-17T16:57:51.001Z,14.76
2018-04-17T17:00:19.380Z,14.64
2018-04-17T17:02:47.799Z,14.50
2018-04-17T17:05:16.170Z,14.38
2018-04-17T17:07:44.959Z,14.26
2018-04-17T17:10:13.407Z,14.13
2018-04-17T17:12:41.789Z,14.00
2018-04-17T17:15:13.732Z,13.92
2018-04-17T17:17:42.153Z,13.83
2018-04-17T17:20:11.239Z,13.80
2018-04-17T17:22:39.686Z,13.75
2018-04-17T17:25:08.469Z,13.72
2018-04-17T17:27:36.850Z,13.67
2018-04-17T17:30:05.844Z,13.62
2018-04-17T17:32:34.282Z,13.56
2018-04-17T17:35:03.898Z,13.49
2018-04-17T17:37:36.668Z,13.43
2018-04-17T17:40:14.940Z,13.35
2018-04-17T17:42:43.530Z,13.24
2018-04-17T17:45:11.935Z,13.18
2018-04-17T17:47:40.759Z,13.12
2018-04-17T17:50:09.232Z,13.05
2018-04-17T17:52:38.320Z,13.02
2018-04-17T17:55:07.058Z,12.94
2018-04-17T17:57:35.810Z,12.86
2018-04-17T18:00:04.643Z,12.81
2018-04-17T18:02:33.028Z,12.72
2018-04-17T18:05:01.413Z,12.64
2018-04-17T18:07:29.947Z,12.59
2018-04-17T18:09:58.910Z,12.56
2018-04-17T18:12:27.658Z,12.71
2018-04-17T18:14:56.043Z,12.89
2018-04-17T18:17:24.771Z,12.90
2018-04-17T18:19:53.175Z,12.79
2018-04-17T18:22:21.549Z,12.62
2018-04-17T18:24:49.918Z,12.53
2018-04-17T18:27:18.370Z,12.55
2018-04-17T18:29:46.876Z,12.50
2018-04-17T18:32:15.277Z,12.46
2018-04-17T18:34:45.308Z,12.38
2018-04-17T18:37:16.822Z,12.29
2018-04-17T18:39:47.393Z,12.21
2018-04-17T18:42:16.431Z,12.19
2018-04-17T18:44:45.118Z,12.12
2018-04-17T18:47:13.528Z,12.02
2018-04-17T18:49:41.917Z,11.93
2018-04-17T18:52:10.864Z,11.89
2018-04-17T18:54:39.619Z,11.83
2018-04-17T18:57:08.029Z,11.75
2018-04-17T18:59:36.891Z,11.65
2018-04-17T19:02:05.413Z,11.60
2018-04-17T19:04:33.845Z,11.53
2018-04-17T19:07:02.677Z,11.50
2018-04-17T19:09:31.915Z,11.44
2018-04-17T19:12:00.292Z,11.38
2018-04-17T19:14:28.918Z,11.29
2018-04-17T19:16:59.037Z,11.25
2018-04-17T19:19:27.929Z,11.21
2018-04-17T19:24:29.759Z,11.11
2018-04-17T19:26:58.328Z,11.05
2018-04-17T19:29:30.414Z,10.99
2018-04-17T19:32:00.545Z,10.96
2018-04-17T19:34:29.398Z,10.89
2018-04-17T19:36:58.045Z,10.81
2018-04-17T19:39:26.441Z,10.79
2018-04-17T19:41:54.811Z,10.73
2018-04-17T19:44:23.180Z,10.68
2018-04-17T19:46:51.942Z,10.62
2018-04-17T19:49:20.340Z,10.59
2018-04-17T19:51:49.397Z,10.52
2018-04-17T19:54:20.031Z,10.48
2018-04-17T19:56:50.508Z,10.47
2018-04-17T19:59:18.899Z,10.40
2018-04-17T20:01:47.704Z,10.36
2018-04-17T20:04:16.535Z,10.34
2018-04-17T20:06:44.900Z,10.30
2018-04-17T20:09:13.976Z,10.26
2018-04-17T20:11:43.179Z,10.28
2018-04-17T20:14:13.735Z,10.27
2018-04-17T20:16:42.191Z,10.23
2018-04-17T20:19:10.837Z,10.20
2018-04-17T20:21:39.490Z,10.18
2018-04-17T20:24:08.168Z,10.16
2018-04-17T20:26:37.019Z,10.15
2018-04-17T20:29:06.508Z,10.16
2018-04-17T20:31:37.081Z,10.19
2018-04-17T20:34:05.461Z,10.19
2018-04-17T20:36:34.453Z,10.19
2018-04-17T20:39:03.034Z,10.21
2018-04-17T20:41:31.904Z,10.22
2018-04-17T20:44:00.923Z,10.23
2018-04-17T20:46:31.038Z,10.23
2018-04-17T20:49:00.405Z,10.21
2018-04-17T20:51:29.705Z,10.18
2018-04-17T20:53:58.131Z,10.13
2018-04-17T20:56:26.568Z,10.09
2018-04-17T20:58:55.463Z,10.06
2018-04-17T21:01:24.299Z,9.99
2018-04-17T21:03:52.934Z,9.94
2018-04-17T21:06:21.733Z,9.91
2018-04-17T21:08:50.103Z,9.91
2018-04-17T21:11:19.565Z,9.87
2018-04-17T21:13:48.308Z,9.86
2018-04-17T21:16:19.417Z,9.87
2018-04-17T21:18:48.085Z,9.84
2018-04-17T21:21:16.563Z,9.83
2018-04-17T21:23:44.920Z,9.82
2018-04-17T21:26:13.279Z,9.80
2018-04-17T21:28:42.094Z,9.76
2018-04-17T21:31:10.477Z,9.75
2018-04-17T21:33:39.118Z,9.73
2018-04-17T21:36:07.807Z,9.68
2018-04-17T21:38:36.253Z,9.64
2018-04-17T21:41:04.881Z,9.61
2018-04-17T21:43:33.250Z,9.57
2018-04-17T21:46:01.613Z,9.56
2018-04-17T21:48:29.973Z,9.52
2018-04-17T21:50:58.655Z,9.48
2018-04-17T21:53:27.048Z,9.43
2018-04-17T21:55:55.456Z,9.40
2018-04-17T21:58:24.141Z,9.35
2018-04-17T22:00:52.504Z,9.31
2018-04-17T22:03:21.288Z,9.28
2018-04-17T22:05:49.643Z,9.23
2018-04-17T22:08:18.135Z,9.21
2018-04-17T22:10:46.501Z,9.19
2018-04-17T22:13:14.866Z,9.18
2018-04-17T22:15:43.225Z,9.16
2018-04-17T22:18:11.620Z,9.15
2018-04-17T22:20:40.007Z,9.15
2018-04-17T22:23:08.366Z,9.13
2018-04-17T22:25:36.743Z,9.11
2018-04-17T22:28:05.105Z,9.08
2018-04-17T22:30:33.471Z,9.04
2018-04-17T22:33:02.207Z,9.03
2018-04-17T22:35:32.259Z,9.01
2018-04-17T22:38:01.271Z,8.98
2018-04-17T22:40:35.100Z,8.96
2018-04-17T22:43:03.904Z,8.96
2018-04-17T22:45:33.481Z,8.96
2018-04-17T22:48:01.833Z,8.96
2018-04-17T22:50:35.687Z,8.95
2018-04-17T22:53:04.049Z,8.95
2018-04-17T22:55:32.414Z,8.95
2018-04-17T22:58:00.767Z,8.96
2018-04-17T23:00:29.129Z,8.98
2018-04-17T23:02:57.485Z,8.99
2018-04-17T23:05:31.244Z,8.98
2018-04-17T23:07:59.741Z,9.01
2018-04-17T23:10:28.311Z,9.01
2018-04-17T23:12:56.671Z,9.02
2018-04-17T23:15:25.036Z,9.00
2018-04-17T23:17:53.795Z,8.99
2018-04-17T23:20:22.154Z,9.00
2018-04-17T23:22:50.514Z,9.00
2018-04-17T23:25:18.867Z,9.01
2018-04-17T23:27:47.367Z,8.99
2018-04-17T23:30:17.376Z,9.00
2018-04-17T23:32:46.052Z,8.99
2018-04-17T23:35:14.481Z,8.96
2018-04-17T23:37:42.989Z,8.98
2018-04-17T23:40:11.347Z,8.98
2018-04-17T23:42:39.751Z,8.97
2018-04-17T23:45:08.105Z,8.94
2018-04-17T23:47:36.513Z,8.92
2018-04-17T23:50:05.302Z,8.92
2018-04-17T23:52:33.664Z,8.92
2018-04-17T23:55:02.203Z,8.90
2018-04-17T23:57:31.057Z,8.88
2018-04-17T23:59:59.540Z,8.87
